createdAt,value
2023-04-19T00:00:59.486Z,122.98
2023-04-19T00:01:59.530Z,123.89
2023-04-19T00:02:59.591Z,123.53
2023-04-19T00:04:05.819Z,123.80
2023-04-19T00:04:59.495Z,123.16
2023-04-19T00:05:59.446Z,122.71
2023-04-19T00:06:59.402Z,123.80
2023-04-19T00:07:59.525Z,123.80
2023-04-19T00:08:59.355Z,123.80
2023-04-19T00:10:05.605Z,123.71
2023-04-19T00:10:59.348Z,123.89
2023-04-19T00:11:59.327Z,123.62
2023-04-19T00:12:59.307Z,123.80
2023-04-19T00:13:59.315Z,122.53
2023-04-19T00:14:59.337Z,123.71
2023-04-19T00:16:05.532Z,123.43
2023-04-19T00:16:59.315Z,122.80
2023-04-19T00:17:59.374Z,123.07
2023-04-19T00:18:59.264Z,122.71
2023-04-19T00:19:59.215Z,122.98
2023-04-19T00:21:05.460Z,123.07
2023-04-19T00:21:59.213Z,123.53
2023-04-19T00:22:59.212Z,123.62
2023-04-19T00:23:59.198Z,122.53
2023-04-19T00:24:59.161Z,123.07
2023-04-19T00:25:59.149Z,123.71
2023-04-19T00:27:05.410Z,123.25
2023-04-19T00:27:59.112Z,123.25
2023-04-19T00:28:59.125Z,122.62
2023-04-19T00:29:59.085Z,123.43
2023-04-19T00:30:59.073Z,122.98
2023-04-19T00:32:05.343Z,123.43
2023-04-19T00:32:59.133Z,123.16
2023-04-19T00:33:59.051Z,122.98
2023-04-19T00:34:59.036Z,123.53
2023-04-19T00:35:59.006Z,123.25
2023-04-19T00:36:59.031Z,123.07
2023-04-19T00:38:05.245Z,123.07
2023-04-19T00:38:58.970Z,123.53
2023-04-19T00:39:58.984Z,122.17
2023-04-19T00:40:58.980Z,123.07
2023-04-19T00:41:58.956Z,122.80
2023-04-19T00:43:05.170Z,123.07
2023-04-19T00:43:58.922Z,122.98
2023-04-19T00:44:58.926Z,123.34
2023-04-19T00:45:58.967Z,122.80
2023-04-19T00:46:58.916Z,122.89
2023-04-19T00:47:58.954Z,123.07
2023-04-19T00:49:05.108Z,123.43
2023-04-19T00:49:58.857Z,123.16
2023-04-19T00:50:58.839Z,123.43
2023-04-19T00:51:58.820Z,122.80
2023-04-19T00:52:58.792Z,122.98
2023-04-19T00:54:05.067Z,122.89
2023-04-19T00:54:58.785Z,124.17
2023-04-19T00:55:58.762Z,123.80
2023-04-19T00:56:58.737Z,123.43
2023-04-19T00:57:58.737Z,122.89
2023-04-19T00:58:58.726Z,123.43
2023-04-19T01:00:04.950Z,123.43
2023-04-19T01:00:58.701Z,122.89
2023-04-19T01:01:58.824Z,122.98
2023-04-19T01:02:58.718Z,122.89
2023-04-19T01:03:58.742Z,124.17
2023-04-19T01:04:58.632Z,123.16
2023-04-19T01:06:04.861Z,123.62
2023-04-19T01:06:58.649Z,123.25
2023-04-19T01:07:58.606Z,123.25
2023-04-19T01:08:58.597Z,124.07
2023-04-19T01:09:59.530Z,123.62
2023-04-19T01:11:04.808Z,123.62
2023-04-19T01:11:58.560Z,123.89
2023-04-19T01:12:58.546Z,123.25
2023-04-19T01:13:58.510Z,123.25
2023-04-19T01:14:58.547Z,123.34
2023-04-19T01:15:58.547Z,123.34
2023-04-19T01:17:04.766Z,124.26
2023-04-19T01:17:58.536Z,123.53
2023-04-19T01:18:58.449Z,124.07
2023-04-19T01:19:58.455Z,123.53
2023-04-19T01:20:58.455Z,123.53
2023-04-19T01:22:04.705Z,125.00
2023-04-19T01:22:58.395Z,123.80
2023-04-19T01:23:58.383Z,124.07
2023-04-19T01:24:58.380Z,123.89
2023-04-19T01:25:58.396Z,123.98
2023-04-19T01:27:04.594Z,124.54
2023-04-19T01:27:58.365Z,124.26
2023-04-19T01:28:58.354Z,124.35
2023-04-19T01:29:58.318Z,124.26
2023-04-19T01:30:59.173Z,124.54
2023-04-19T01:32:04.570Z,124.54
2023-04-19T01:32:58.454Z,124.91
2023-04-19T01:33:58.261Z,124.91
2023-04-19T01:34:58.251Z,124.91
2023-04-19T01:35:58.241Z,125.09
2023-04-19T01:37:04.489Z,125.37
2023-04-19T01:37:58.281Z,125.85
2023-04-19T01:38:58.239Z,125.00
2023-04-19T01:39:58.203Z,125.56
2023-04-19T01:40:58.188Z,125.66
2023-04-19T01:41:58.168Z,125.85
2023-04-19T01:43:04.369Z,125.85
2023-04-19T01:43:58.119Z,125.75
2023-04-19T01:44:58.146Z,126.22
2023-04-19T01:45:58.104Z,126.22
2023-04-19T01:46:58.138Z,126.22
2023-04-19T01:48:04.352Z,126.42
2023-04-19T01:48:58.116Z,126.99
2023-04-19T01:49:58.072Z,126.80
2023-04-19T01:50:58.039Z,126.61
2023-04-19T01:51:58.041Z,126.70
2023-04-19T01:53:04.275Z,127.38
2023-04-19T01:53:58.025Z,127.18
2023-04-19T01:54:58.012Z,127.38
2023-04-19T01:55:57.965Z,127.57
2023-04-19T01:56:57.995Z,127.67
2023-04-19T01:57:57.966Z,127.76
2023-04-19T01:59:04.206Z,127.57
2023-04-19T01:59:57.950Z,127.76
2023-04-19T02:00:57.945Z,127.76
2023-04-19T02:01:58.004Z,128.16
2023-04-19T02:02:58.028Z,128.25
2023-04-19T02:04:04.254Z,128.25
2023-04-19T02:04:57.855Z,128.75
2023-04-19T02:05:57.865Z,128.75
2023-04-19T02:06:57.856Z,129.14
2023-04-19T02:07:57.848Z,128.75
2023-04-19T02:09:04.110Z,129.04
2023-04-19T02:09:57.848Z,128.16
2023-04-19T02:10:57.783Z,128.95
2023-04-19T02:11:57.782Z,128.65
2023-04-19T02:12:58.011Z,129.34
2023-04-19T02:14:04.071Z,129.34
2023-04-19T02:14:57.749Z,129.34
2023-04-19T02:15:57.758Z,129.04
2023-04-19T02:16:57.923Z,128.75
2023-04-19T02:17:57.753Z,128.65
2023-04-19T02:18:57.689Z,129.44
2023-04-19T02:20:03.938Z,129.34
2023-04-19T02:20:57.670Z,129.14
2023-04-19T02:21:57.716Z,129.14
2023-04-19T02:22:57.660Z,128.75
2023-04-19T02:23:57.625Z,129.74
2023-04-19T02:25:03.829Z,129.44
2023-04-19T02:25:57.597Z,129.64
2023-04-19T02:26:57.610Z,128.85
2023-04-19T02:27:57.560Z,129.34
2023-04-19T02:28:57.577Z,129.54
2023-04-19T02:30:03.791Z,130.15
2023-04-19T02:30:57.516Z,129.54
2023-04-19T02:31:57.559Z,130.05
2023-04-19T02:32:57.548Z,130.15
2023-04-19T02:33:57.484Z,129.34
2023-04-19T02:35:03.715Z,129.64
2023-04-19T02:35:57.474Z,129.44
2023-04-19T02:36:57.499Z,129.84
2023-04-19T02:37:57.471Z,129.54
2023-04-19T02:38:57.425Z,129.74
2023-04-19T02:39:57.407Z,129.74
2023-04-19T02:41:03.653Z,129.74
2023-04-19T02:41:57.404Z,130.25
2023-04-19T02:42:57.402Z,129.95
2023-04-19T02:43:57.369Z,130.35
2023-04-19T02:44:57.351Z,130.65
2023-04-19T02:45:57.436Z,130.15
2023-04-19T02:47:03.638Z,130.65
2023-04-19T02:47:57.467Z,130.35
2023-04-19T02:48:57.321Z,131.48
2023-04-19T02:49:57.279Z,130.65
2023-04-19T02:50:57.295Z,131.48
2023-04-19T02:52:03.540Z,131.06
2023-04-19T02:52:57.255Z,130.55
2023-04-19T02:53:57.221Z,131.06
2023-04-19T02:54:57.225Z,130.96
2023-04-19T02:55:57.215Z,131.17
2023-04-19T02:56:57.409Z,130.96
2023-04-19T02:58:03.453Z,131.48
2023-04-19T02:58:57.186Z,132.10
2023-04-19T02:59:57.143Z,131.37
2023-04-19T03:00:57.189Z,131.58
2023-04-19T03:01:57.856Z,131.58
2023-04-19T03:03:03.561Z,131.17
2023-04-19T03:03:57.302Z,131.68
2023-04-19T03:04:57.088Z,131.79
2023-04-19T03:05:57.161Z,131.58
2023-04-19T03:06:57.096Z,131.79
2023-04-19T03:08:03.331Z,131.79
2023-04-19T03:08:57.045Z,132.51
2023-04-19T03:09:57.040Z,131.48
2023-04-19T03:10:57.016Z,131.99
2023-04-19T03:11:57.035Z,132.20
2023-04-19T03:12:57.006Z,132.20
2023-04-19T03:14:03.246Z,132.20
2023-04-19T03:14:56.973Z,131.68
2023-04-19T03:15:56.971Z,132.31
2023-04-19T03:16:56.979Z,132.31
2023-04-19T03:17:56.970Z,131.79
2023-04-19T03:18:56.939Z,131.99
2023-04-19T03:20:03.125Z,132.51
2023-04-19T03:20:56.896Z,132.51
2023-04-19T03:21:56.880Z,133.25
2023-04-19T03:22:56.870Z,131.99
2023-04-19T03:23:56.844Z,132.62
2023-04-19T03:25:03.110Z,132.62
2023-04-19T03:25:56.876Z,132.62
2023-04-19T03:26:56.785Z,131.99
2023-04-19T03:27:56.796Z,133.04
2023-04-19T03:28:56.763Z,132.83
2023-04-19T03:29:56.778Z,132.62
2023-04-19T03:31:03.024Z,133.04
2023-04-19T03:31:56.755Z,132.41
2023-04-19T03:32:56.742Z,133.47
2023-04-19T03:33:56.831Z,132.62
2023-04-19T03:34:56.700Z,132.41
2023-04-19T03:35:56.696Z,133.68
2023-04-19T03:37:02.904Z,133.68
2023-04-19T03:37:56.693Z,133.36
2023-04-19T03:38:56.629Z,133.68
2023-04-19T03:39:56.650Z,133.79
2023-04-19T03:40:56.671Z,133.89
2023-04-19T03:41:56.612Z,133.68
2023-04-19T03:43:02.864Z,133.04
2023-04-19T03:43:56.565Z,133.15
2023-04-19T03:44:56.585Z,133.25
2023-04-19T03:45:56.558Z,133.57
2023-04-19T03:46:56.542Z,133.04
2023-04-19T03:47:56.616Z,134.00
2023-04-19T03:49:02.785Z,133.68
2023-04-19T03:49:56.517Z,133.25
2023-04-19T03:50:56.577Z,133.79
2023-04-19T03:51:56.496Z,133.47
2023-04-19T03:52:56.535Z,133.79
2023-04-19T03:54:02.743Z,134.11
2023-04-19T03:54:56.439Z,134.65
2023-04-19T03:55:56.463Z,134.11
2023-04-19T03:56:56.425Z,134.11
2023-04-19T03:57:56.408Z,134.75
2023-04-19T03:59:02.759Z,134.00
2023-04-19T03:59:56.371Z,133.68
2023-04-19T04:00:56.353Z,135.41
2023-04-19T04:01:56.402Z,135.52
2023-04-19T04:02:56.600Z,134.43
2023-04-19T04:04:04.785Z,135.19
2023-04-19T04:04:56.473Z,134.43
2023-04-19T04:05:56.332Z,134.54
2023-04-19T04:06:56.291Z,134.43
2023-04-19T04:07:56.300Z,134.32
2023-04-19T04:09:02.560Z,135.19
2023-04-19T04:09:56.268Z,134.43
2023-04-19T04:10:56.239Z,134.75
2023-04-19T04:11:56.214Z,134.75
2023-04-19T04:12:56.221Z,134.75
2023-04-19T04:13:56.222Z,135.63
2023-04-19T04:15:02.434Z,135.30
2023-04-19T04:15:56.261Z,134.97
2023-04-19T04:16:56.188Z,135.08
2023-04-19T04:17:56.225Z,136.29
2023-04-19T04:18:56.140Z,135.41
2023-04-19T04:20:02.396Z,134.97
2023-04-19T04:20:56.152Z,135.41
2023-04-19T04:21:56.088Z,135.85
2023-04-19T04:22:56.098Z,135.85
2023-04-19T04:23:56.102Z,135.52
2023-04-19T04:24:56.039Z,135.74
2023-04-19T04:26:02.309Z,135.52
2023-04-19T04:26:56.044Z,135.52
2023-04-19T04:27:56.002Z,135.85
2023-04-19T04:28:56.064Z,135.52
2023-04-19T04:29:56.024Z,136.07
2023-04-19T04:31:02.225Z,136.18
2023-04-19T04:31:55.977Z,135.41
2023-04-19T04:32:56.027Z,136.29
2023-04-19T04:33:55.950Z,135.63
2023-04-19T04:34:55.996Z,135.63
2023-04-19T04:35:55.913Z,136.07
2023-04-19T04:37:02.190Z,135.63
2023-04-19T04:37:55.898Z,136.07
2023-04-19T04:38:55.865Z,135.63
2023-04-19T04:39:55.878Z,135.96
2023-04-19T04:40:55.868Z,135.74
2023-04-19T04:41:55.854Z,135.96
2023-04-19T04:43:02.141Z,136.07
2023-04-19T04:44:10.757Z,136.51
2023-04-19T04:44:57.338Z,136.07
2023-04-19T04:45:55.927Z,135.41
2023-04-19T04:46:55.820Z,136.07
2023-04-19T04:48:02.064Z,136.96
2023-04-19T04:48:55.756Z,136.29
2023-04-19T04:49:55.753Z,136.85
2023-04-19T04:50:55.746Z,136.18
2023-04-19T04:51:55.727Z,135.96
2023-04-19T04:52:55.718Z,135.74
2023-04-19T04:54:01.940Z,135.74
2023-04-19T04:54:55.702Z,136.29
2023-04-19T04:55:55.736Z,135.74
2023-04-19T04:56:55.754Z,136.51
2023-04-19T04:57:55.657Z,135.74
2023-04-19T04:58:55.655Z,134.65
2023-04-19T05:00:01.894Z,135.41
2023-04-19T05:00:55.747Z,134.97
2023-04-19T05:01:55.661Z,136.29
2023-04-19T05:02:55.689Z,135.74
2023-04-19T05:03:55.625Z,135.85
2023-04-19T05:04:55.609Z,135.96
2023-04-19T05:06:01.789Z,135.74
2023-04-19T05:06:55.562Z,136.29
2023-04-19T05:07:55.522Z,135.74
2023-04-19T05:08:55.515Z,135.74
2023-04-19T05:09:55.501Z,135.41
2023-04-19T05:11:01.710Z,135.41
2023-04-19T05:11:55.484Z,135.19
2023-04-19T05:12:55.522Z,134.65
2023-04-19T05:13:55.427Z,134.54
2023-04-19T05:14:55.445Z,134.75
2023-04-19T05:15:55.474Z,135.63
2023-04-19T05:17:01.643Z,134.65
2023-04-19T05:17:55.439Z,135.30
2023-04-19T05:18:55.385Z,134.86
2023-04-19T05:19:55.366Z,135.74
2023-04-19T05:20:55.422Z,135.52
2023-04-19T05:22:01.676Z,134.97
2023-04-19T05:22:55.326Z,134.43
2023-04-19T05:23:55.310Z,135.41
2023-04-19T05:24:55.310Z,134.97
2023-04-19T05:25:55.314Z,134.75
2023-04-19T05:26:55.312Z,134.86
2023-04-19T05:28:01.604Z,135.41
2023-04-19T05:28:55.264Z,135.08
2023-04-19T05:29:55.282Z,134.54
2023-04-19T05:30:55.317Z,134.54
2023-04-19T05:31:55.244Z,134.75
2023-04-19T05:32:55.300Z,134.43
2023-04-19T05:34:01.510Z,134.11
2023-04-19T05:34:55.194Z,134.54
2023-04-19T05:35:55.143Z,133.89
2023-04-19T05:36:55.168Z,133.89
2023-04-19T05:37:55.129Z,134.00
2023-04-19T05:38:55.119Z,133.89
2023-04-19T05:40:01.412Z,134.00
2023-04-19T05:40:55.104Z,133.89
2023-04-19T05:41:55.096Z,133.68
2023-04-19T05:42:55.141Z,133.68
2023-04-19T05:43:55.066Z,133.47
2023-04-19T05:45:02.476Z,133.89
2023-04-19T05:45:55.078Z,133.25
2023-04-19T05:46:55.025Z,132.83
2023-04-19T05:47:55.111Z,133.68
2023-04-19T05:48:55.007Z,133.47
2023-04-19T05:50:01.280Z,133.04
2023-04-19T05:50:54.987Z,134.11
2023-04-19T05:51:54.961Z,133.36
2023-04-19T05:52:55.004Z,133.04
2023-04-19T05:53:57.172Z,133.36
2023-04-19T05:55:01.143Z,132.62
2023-04-19T05:55:54.986Z,132.83
2023-04-19T05:56:54.890Z,133.36
2023-04-19T05:57:54.977Z,133.15
2023-04-19T05:58:54.915Z,132.31
2023-04-19T06:00:01.181Z,132.41
2023-04-19T06:00:54.870Z,132.51
2023-04-19T06:01:54.901Z,132.83
2023-04-19T06:02:54.915Z,133.04
2023-04-19T06:03:54.993Z,132.73
2023-04-19T06:05:04.948Z,132.73
2023-04-19T06:05:56.326Z,132.51
2023-04-19T06:06:54.816Z,132.51
2023-04-19T06:08:01.630Z,132.41
2023-04-19T06:08:56.273Z,132.62
2023-04-19T06:10:01.021Z,132.41
2023-04-19T06:10:58.454Z,132.41
2023-04-19T06:11:56.231Z,131.99
2023-04-19T06:12:54.722Z,132.10
2023-04-19T06:13:54.672Z,131.99
2023-04-19T06:15:00.993Z,131.48
2023-04-19T06:15:54.667Z,131.68
2023-04-19T06:16:54.640Z,130.96
2023-04-19T06:17:54.756Z,131.17
2023-04-19T06:18:54.608Z,130.76
2023-04-19T06:19:54.594Z,130.45
2023-04-19T06:21:00.893Z,130.15
2023-04-19T06:21:54.573Z,130.45
2023-04-19T06:22:54.579Z,129.95
2023-04-19T06:23:54.611Z,129.95
2023-04-19T06:24:54.594Z,129.64
2023-04-19T06:26:00.755Z,129.34
2023-04-19T06:26:54.608Z,129.04
2023-04-19T06:27:54.486Z,128.95
2023-04-19T06:28:54.517Z,128.55
2023-04-19T06:29:54.454Z,129.34
2023-04-19T06:31:00.794Z,128.45
2023-04-19T06:31:54.546Z,128.16
2023-04-19T06:32:54.641Z,128.06
2023-04-19T06:33:54.427Z,128.25
2023-04-19T06:34:54.420Z,128.25
2023-04-19T06:35:54.433Z,127.57
2023-04-19T06:37:00.629Z,127.67
2023-04-19T06:37:54.387Z,127.38
2023-04-19T06:38:54.344Z,127.18
2023-04-19T06:39:54.353Z,127.09
2023-04-19T06:40:54.322Z,126.61
2023-04-19T06:41:54.316Z,126.51
2023-04-19T06:43:00.550Z,125.85
2023-04-19T06:43:54.288Z,125.66
2023-04-19T06:44:54.290Z,125.09
2023-04-19T06:45:54.305Z,125.19
2023-04-19T06:46:54.255Z,124.72
2023-04-19T06:48:00.533Z,124.07
2023-04-19T06:48:54.221Z,123.80
2023-04-19T06:49:54.223Z,124.35
2023-04-19T06:50:54.188Z,123.80
2023-04-19T06:51:54.177Z,122.80
2023-04-19T06:52:54.179Z,123.25
2023-04-19T06:54:00.409Z,123.16
2023-04-19T06:54:54.150Z,122.00
2023-04-19T06:55:54.165Z,122.17
2023-04-19T06:56:54.149Z,121.73
2023-04-19T06:57:54.119Z,121.46
2023-04-19T06:59:00.346Z,121.64
2023-04-19T06:59:54.094Z,121.38
2023-04-19T07:00:54.064Z,120.85
2023-04-19T07:01:54.313Z,119.90
2023-04-19T07:02:54.380Z,119.99
2023-04-19T07:04:00.391Z,119.22
2023-04-19T07:04:54.015Z,118.54
2023-04-19T07:05:54.002Z,117.96
2023-04-19T07:06:53.968Z,118.21
2023-04-19T07:07:53.988Z,117.96
2023-04-19T07:09:00.406Z,117.46
2023-04-19T07:09:54.147Z,116.72
2023-04-19T07:10:53.941Z,116.24
2023-04-19T07:11:53.918Z,115.60
2023-04-19T07:12:53.902Z,115.68
2023-04-19T07:13:53.896Z,115.76
2023-04-19T07:15:00.181Z,114.88
2023-04-19T07:15:53.884Z,115.12
2023-04-19T07:16:53.889Z,113.87
2023-04-19T07:17:53.853Z,114.49
2023-04-19T07:18:53.821Z,113.79
2023-04-19T07:19:53.835Z,113.48
2023-04-19T07:21:00.045Z,112.72
2023-04-19T07:21:53.775Z,112.34
2023-04-19T07:22:53.823Z,112.34
2023-04-19T07:23:53.763Z,111.29
2023-04-19T07:24:53.745Z,111.59
2023-04-19T07:26:00.022Z,111.07
2023-04-19T07:26:53.733Z,110.93
2023-04-19T07:27:53.762Z,110.63
2023-04-19T07:28:53.695Z,110.71
2023-04-19T07:29:53.718Z,110.34
2023-04-19T07:30:53.699Z,109.98
2023-04-19T07:32:00.011Z,109.91
2023-04-19T07:32:53.707Z,109.33
2023-04-19T07:33:53.659Z,109.55
2023-04-19T07:34:53.620Z,108.55
2023-04-19T07:35:53.621Z,108.20
2023-04-19T07:36:53.629Z,107.99
2023-04-19T07:37:59.824Z,107.58
2023-04-19T07:38:53.663Z,107.30
2023-04-19T07:39:53.557Z,107.44
2023-04-19T07:40:53.537Z,107.30
2023-04-19T07:41:53.535Z,106.55
2023-04-19T07:42:59.788Z,105.68
2023-04-19T07:43:53.504Z,106.62
2023-04-19T07:44:53.485Z,105.41
2023-04-19T07:45:53.468Z,104.82
2023-04-19T07:46:53.598Z,105.54
2023-04-19T07:47:53.521Z,104.62
2023-04-19T07:48:59.683Z,105.01
2023-04-19T07:49:53.466Z,103.20
2023-04-19T07:50:53.411Z,103.33
2023-04-19T07:51:53.398Z,103.39
2023-04-19T07:52:53.409Z,102.70
2023-04-19T07:53:53.416Z,103.65
2023-04-19T07:54:59.637Z,102.45
2023-04-19T07:55:53.346Z,102.13
2023-04-19T07:56:53.371Z,101.95
2023-04-19T07:57:53.325Z,102.38
2023-04-19T07:59:04.478Z,101.39
2023-04-19T07:59:54.791Z,101.21
2023-04-19T08:00:59.563Z,101.09
2023-04-19T08:01:53.351Z,100.90
2023-04-19T08:02:53.374Z,99.88
2023-04-19T08:03:53.549Z,100.18
2023-04-19T08:04:53.459Z,99.46
2023-04-19T08:05:53.230Z,98.47
2023-04-19T08:06:59.438Z,98.76
2023-04-19T08:07:53.201Z,97.78
2023-04-19T08:08:53.205Z,97.84
2023-04-19T08:09:53.206Z,97.78
2023-04-19T08:10:53.157Z,97.44
2023-04-19T08:11:53.142Z,96.65
2023-04-19T08:13:05.883Z,96.65
2023-04-19T08:14:26.827Z,96.15
2023-04-19T08:15:04.808Z,96.21
2023-04-19T08:17:53.089Z,95.06
2023-04-19T08:18:59.293Z,95.01
2023-04-19T08:19:53.043Z,94.90
2023-04-19T08:20:53.058Z,94.42
2023-04-19T08:21:53.031Z,93.84
2023-04-19T08:22:53.010Z,94.05
2023-04-19T08:23:59.261Z,95.36
2023-04-19T08:24:52.979Z,93.52
2023-04-19T08:25:52.969Z,95.03
2023-04-19T08:26:52.931Z,94.92
2023-04-19T08:27:52.955Z,94.39
2023-04-19T08:28:52.920Z,93.75
2023-04-19T08:29:59.221Z,93.65
2023-04-19T08:30:52.885Z,93.23
2023-04-19T08:31:52.898Z,93.23
2023-04-19T08:32:55.440Z,93.03
2023-04-19T08:33:52.892Z,92.11
2023-04-19T08:34:52.875Z,91.60
2023-04-19T08:35:59.094Z,91.50
2023-04-19T08:37:03.587Z,91.30
2023-04-19T08:37:54.313Z,91.10
2023-04-19T08:39:04.216Z,90.61
2023-04-19T08:39:54.326Z,90.81
2023-04-19T08:40:59.013Z,90.22
2023-04-19T08:42:02.961Z,89.83
2023-04-19T08:42:54.257Z,89.07
2023-04-19T08:43:52.736Z,88.88
2023-04-19T08:45:13.621Z,88.32
2023-04-19T08:45:59.956Z,87.95
2023-04-19T08:46:52.671Z,87.95
2023-04-19T08:48:00.850Z,87.95
2023-04-19T08:48:54.290Z,88.04
2023-04-19T08:50:06.801Z,87.95
2023-04-19T08:51:05.632Z,87.85
2023-04-19T08:51:54.119Z,87.76
2023-04-19T08:52:58.818Z,87.58
2023-04-19T08:53:54.102Z,87.40
2023-04-19T08:54:52.586Z,87.21
2023-04-19T08:56:52.561Z,87.03
2023-04-19T08:57:52.541Z,86.76
2023-04-19T08:59:07.328Z,86.85
2023-04-19T08:59:54.041Z,87.03
2023-04-19T09:00:52.481Z,86.67
2023-04-19T09:01:58.816Z,86.85
2023-04-19T09:02:52.640Z,86.85
2023-04-19T09:04:02.379Z,86.49
2023-04-19T09:04:54.180Z,86.23
2023-04-19T09:05:52.603Z,85.87
2023-04-19T09:06:52.452Z,85.35
2023-04-19T09:07:58.645Z,85.09
2023-04-19T09:08:52.403Z,84.83
2023-04-19T09:10:02.417Z,84.40
2023-04-19T09:10:53.912Z,84.40
2023-04-19T09:11:52.366Z,84.06
2023-04-19T09:12:58.615Z,83.98
2023-04-19T09:13:52.975Z,83.81
2023-04-19T09:15:52.353Z,83.81
2023-04-19T09:16:52.384Z,83.56
2023-04-19T09:17:58.693Z,83.39
2023-04-19T09:18:59.754Z,83.56
2023-04-19T09:19:53.765Z,83.23
2023-04-19T09:20:52.248Z,82.65
2023-04-19T09:21:52.247Z,82.08
2023-04-19T09:22:52.211Z,81.84
2023-04-19T09:23:58.446Z,81.13
2023-04-19T09:26:15.111Z,80.20
2023-04-19T09:26:53.201Z,80.20
2023-04-19T09:27:52.143Z,79.14
2023-04-19T09:28:52.137Z,78.76
2023-04-19T09:29:58.413Z,78.76
2023-04-19T09:31:02.347Z,78.47
2023-04-19T09:31:53.745Z,77.67
2023-04-19T09:32:52.181Z,77.31
2023-04-19T09:33:55.973Z,77.10
2023-04-19T09:34:58.367Z,76.67
2023-04-19T09:35:52.034Z,76.25
2023-04-19T09:37:00.588Z,75.98
2023-04-19T09:38:04.710Z,76.12
2023-04-19T09:38:53.511Z,75.70
2023-04-19T09:39:58.253Z,76.05
2023-04-19T09:40:51.972Z,76.12
2023-04-19T09:41:51.981Z,76.25
2023-04-19T09:44:03.189Z,75.84
2023-04-19T09:45:59.663Z,76.05
2023-04-19T09:46:53.508Z,75.36
2023-04-19T09:47:51.971Z,75.16
2023-04-19T09:48:51.870Z,74.76
2023-04-19T09:49:52.057Z,74.49
2023-04-19T09:50:57.486Z,73.57
2023-04-19T09:51:59.598Z,73.57
2023-04-19T09:52:51.878Z,72.68
2023-04-19T09:53:51.799Z,72.56
2023-04-19T09:54:51.812Z,72.06
2023-04-19T09:56:01.182Z,71.32
2023-04-19T09:56:54.792Z,71.26
2023-04-19T09:57:58.014Z,70.54
2023-04-19T09:58:58.637Z,70.12
2023-04-19T09:59:53.240Z,69.89
2023-04-19T10:00:57.269Z,69.26
2023-04-19T10:01:53.291Z,68.41
2023-04-19T10:02:58.775Z,68.97
2023-04-19T10:03:52.768Z,68.91
2023-04-19T10:05:53.193Z,68.91
2023-04-19T10:07:13.871Z,68.46
2023-04-19T10:08:00.058Z,69.03
2023-04-19T10:08:51.726Z,68.29
2023-04-19T10:09:53.573Z,68.63
2023-04-19T10:10:51.620Z,68.24
2023-04-19T10:11:54.481Z,68.07
2023-04-19T10:13:16.153Z,67.69
2023-04-19T10:13:53.131Z,67.85
2023-04-19T10:14:51.547Z,67.91
2023-04-19T10:15:57.051Z,67.63
2023-04-19T10:16:53.159Z,67.36
2023-04-19T10:17:51.556Z,67.09
2023-04-19T10:18:57.749Z,66.82
2023-04-19T10:19:51.471Z,66.67
2023-04-19T10:20:51.491Z,66.35
2023-04-19T10:21:51.473Z,65.93
2023-04-19T10:22:51.449Z,65.88
2023-04-19T10:23:51.430Z,65.36
2023-04-19T10:24:57.678Z,64.71
2023-04-19T10:25:51.415Z,64.21
2023-04-19T10:26:51.424Z,63.53
2023-04-19T10:27:51.394Z,63.15
2023-04-19T10:28:51.358Z,62.58
2023-04-19T10:29:57.653Z,62.16
2023-04-19T10:30:51.350Z,61.75
2023-04-19T10:31:51.409Z,61.21
2023-04-19T10:32:51.375Z,60.94
2023-04-19T10:33:51.317Z,60.50
2023-04-19T10:34:57.590Z,60.41
2023-04-19T10:35:51.280Z,60.11
2023-04-19T10:36:51.266Z,59.64
2023-04-19T10:37:51.269Z,59.09
2023-04-19T10:38:51.258Z,58.72
2023-04-19T10:39:57.469Z,58.47
2023-04-19T10:40:51.224Z,57.83
2023-04-19T10:41:51.186Z,57.55
2023-04-19T10:42:51.210Z,56.96
2023-04-19T10:43:51.183Z,57.08
2023-04-19T10:44:57.453Z,56.16
2023-04-19T10:45:51.195Z,55.60
2023-04-19T10:46:51.168Z,55.82
2023-04-19T10:47:51.138Z,55.78
2023-04-19T10:48:51.111Z,55.71
2023-04-19T10:49:57.371Z,55.56
2023-04-19T10:50:51.069Z,55.23
2023-04-19T10:51:51.075Z,55.16
2023-04-19T10:52:51.307Z,55.09
2023-04-19T10:53:51.037Z,55.12
2023-04-19T10:54:57.289Z,54.94
2023-04-19T10:55:51.022Z,55.27
2023-04-19T10:56:51.009Z,55.16
2023-04-19T10:57:50.991Z,55.09
2023-04-19T10:58:51.005Z,55.16
2023-04-19T10:59:57.211Z,55.20
2023-04-19T11:00:50.950Z,54.98
2023-04-19T11:01:51.078Z,54.55
2023-04-19T11:02:51.081Z,54.16
2023-04-19T11:03:51.105Z,53.71
2023-04-19T11:04:57.185Z,53.50
2023-04-19T11:05:50.889Z,52.90
2023-04-19T11:06:50.911Z,52.53
2023-04-19T11:07:50.872Z,51.59
2023-04-19T11:08:50.830Z,51.34
2023-04-19T11:09:57.111Z,50.81
2023-04-19T11:10:52.220Z,50.84
2023-04-19T11:11:50.818Z,49.96
2023-04-19T11:12:50.795Z,49.00
2023-04-19T11:13:50.784Z,47.52
2023-04-19T11:14:57.024Z,46.83
2023-04-19T11:15:50.793Z,46.11
2023-04-19T11:16:50.786Z,45.86
2023-04-19T11:18:00.724Z,46.06
2023-04-19T11:18:52.274Z,46.11
2023-04-19T11:19:50.728Z,45.96
2023-04-19T11:20:56.953Z,45.61
2023-04-19T11:21:50.698Z,45.12
2023-04-19T11:22:50.675Z,44.88
2023-04-19T11:23:50.676Z,44.31
2023-04-19T11:24:50.656Z,43.44
2023-04-19T11:25:56.893Z,42.99
2023-04-19T11:26:51.312Z,42.69
2023-04-19T11:27:50.620Z,42.64
2023-04-19T11:28:50.598Z,42.56
2023-04-19T11:29:50.615Z,42.99
2023-04-19T11:30:50.616Z,43.17
2023-04-19T11:31:56.872Z,43.66
2023-04-19T11:32:50.599Z,44.08
2023-04-19T11:33:50.550Z,44.45
2023-04-19T11:34:50.529Z,44.74
2023-04-19T11:35:50.529Z,45.12
2023-04-19T11:36:50.523Z,46.01
2023-04-19T11:37:56.768Z,46.63
2023-04-19T11:38:50.462Z,47.10
2023-04-19T11:39:50.450Z,47.36
2023-04-19T11:40:50.545Z,47.88
2023-04-19T11:41:50.452Z,48.65
2023-04-19T11:42:50.446Z,48.94
2023-04-19T11:43:56.673Z,49.67
2023-04-19T11:44:50.428Z,49.87
2023-04-19T11:45:50.488Z,50.63
2023-04-19T11:46:50.416Z,50.87
2023-04-19T11:47:50.560Z,51.06
2023-04-19T11:48:56.622Z,51.03
2023-04-19T11:49:50.354Z,50.11
2023-04-19T11:50:50.350Z,49.14
2023-04-19T11:51:50.356Z,48.68
2023-04-19T11:52:50.298Z,48.51
2023-04-19T11:53:56.570Z,48.57
2023-04-19T11:54:50.297Z,49.00
2023-04-19T11:55:50.287Z,49.52
2023-04-19T11:56:50.289Z,50.11
2023-04-19T11:57:50.233Z,50.50
2023-04-19T11:58:50.267Z,51.15
2023-04-19T11:59:56.471Z,51.72
2023-04-19T12:00:50.240Z,52.24
2023-04-19T12:01:50.260Z,52.30
2023-04-19T12:02:50.339Z,53.20
2023-04-19T12:03:50.365Z,53.81
2023-04-19T12:04:56.505Z,54.44
2023-04-19T12:05:50.212Z,55.02
2023-04-19T12:06:50.120Z,55.60
2023-04-19T12:07:50.116Z,56.27
2023-04-19T12:08:50.192Z,56.96
2023-04-19T12:09:50.106Z,57.04
2023-04-19T12:10:56.348Z,57.71
2023-04-19T12:11:50.350Z,58.27
2023-04-19T12:12:50.088Z,58.72
2023-04-19T12:13:50.084Z,58.72
2023-04-19T12:14:50.037Z,59.34
2023-04-19T12:15:56.291Z,59.64
2023-04-19T12:16:50.050Z,59.90
2023-04-19T12:17:56.820Z,60.15
2023-04-19T12:18:51.538Z,60.59
2023-04-19T12:19:49.970Z,60.46
2023-04-19T12:20:56.245Z,60.85
2023-04-19T12:21:49.951Z,61.30
2023-04-19T12:22:49.940Z,60.81
2023-04-19T12:23:49.923Z,61.30
2023-04-19T12:24:49.965Z,61.39
2023-04-19T12:25:56.168Z,61.34
2023-04-19T12:26:49.935Z,61.66
2023-04-19T12:27:49.850Z,61.89
2023-04-19T12:28:49.860Z,62.07
2023-04-19T12:29:49.860Z,62.67
2023-04-19T12:30:49.835Z,62.63
2023-04-19T12:31:56.173Z,63.05
2023-04-19T12:32:49.874Z,63.34
2023-04-19T12:33:49.796Z,63.53
2023-04-19T12:34:49.812Z,63.77
2023-04-19T12:35:49.767Z,63.92
2023-04-19T12:36:49.764Z,64.21
2023-04-19T12:37:55.978Z,64.51
2023-04-19T12:38:49.706Z,64.21
2023-04-19T12:39:49.708Z,65.11
2023-04-19T12:40:49.686Z,64.91
2023-04-19T12:41:49.694Z,65.47
2023-04-19T12:42:49.678Z,65.62
2023-04-19T12:43:55.976Z,66.29
2023-04-19T12:44:49.642Z,66.51
2023-04-19T12:45:49.669Z,66.14